sensor_id;sensor_type;location;lat;lon;timestamp;P1;P2;P0
70520;PMS5003;58442;52.716;23.560;2023-08-07T00:00:01;4;4;3
70520;PMS5003;58442;52.716;23.560;2023-08-07T00:02:03;4;4;3
70520;PMS5003;58442;52.716;23.560;2023-08-07T00:04:12;2;2;2
70520;PMS5003;58442;52.716;23.560;2023-08-07T00:06:14;3;3;3
70520;PMS5003;58442;52.716;23.560;2023-08-07T00:08:15;4;4;3
70520;PMS5003;58442;52.716;23.560;2023-08-07T00:10:16;4;4;3
70520;PMS5003;58442;52.716;23.560;2023-08-07T00:12:27;5;5;5
70520;PMS5003;58442;52.716;23.560;2023-08-07T00:14:28;3;3;2
70520;PMS5003;58442;52.716;23.560;2023-08-07T00:16:30;3;3;3
70520;PMS5003;58442;52.716;23.560;2023-08-07T00:18:31;4;4;3
70520;PMS5003;58442;52.716;23.560;2023-08-07T00:20:42;3;3;2
70520;PMS5003;58442;52.716;23.560;2023-08-07T00:22:43;6;6;4
70520;PMS5003;58442;52.716;23.560;2023-08-07T00:24:44;7;7;6
70520;PMS5003;58442;52.716;23.560;2023-08-07T00:26:46;12;12;8
70520;PMS5003;58442;52.716;23.560;2023-08-07T00:28:56;6;6;5
70520;PMS5003;58442;52.716;23.560;2023-08-07T00:30:58;13;13;9
70520;PMS5003;58442;52.716;23.560;2023-08-07T00:32:59;8;8;5
70520;PMS5003;58442;52.716;23.560;2023-08-07T00:35:01;7;7;4
70520;PMS5003;58442;52.716;23.560;2023-08-07T00:37:11;6;6;5
70520;PMS5003;58442;52.716;23.560;2023-08-07T00:39:12;6;6;4
70520;PMS5003;58442;52.716;23.560;2023-08-07T00:41:14;5;5;4
70520;PMS5003;58442;52.716;23.560;2023-08-07T00:43:17;6;6;4
70520;PMS5003;58442;52.716;23.560;2023-08-07T00:45:26;4;4;4
70520;PMS5003;58442;52.716;23.560;2023-08-07T00:47:27;6;6;5
70520;PMS5003;58442;52.716;23.560;2023-08-07T00:49:29;8;8;5
70520;PMS5003;58442;52.716;23.560;2023-08-07T00:51:31;6;6;5
70520;PMS5003;58442;52.716;23.560;2023-08-07T00:53:40;5;5;5
70520;PMS5003;58442;52.716;23.560;2023-08-07T00:55:43;4;4;4
70520;PMS5003;58442;52.716;23.560;2023-08-07T00:57:45;4;4;3
70520;PMS5003;58442;52.716;23.560;2023-08-07T00:59:47;3;3;3
70520;PMS5003;58442;52.716;23.560;2023-08-07T01:01:55;3;3;3
70520;PMS5003;58442;52.716;23.560;2023-08-07T01:03:56;2;2;2
70520;PMS5003;58442;52.716;23.560;2023-08-07T01:05:58;2;2;2
70520;PMS5003;58442;52.716;23.560;2023-08-07T01:07:59;2;2;1
70520;PMS5003;58442;52.716;23.560;2023-08-07T01:10:10;3;3;2
70520;PMS5003;58442;52.716;23.560;2023-08-07T01:12:14;6;6;4
70520;PMS5003;58442;52.716;23.560;2023-08-07T01:14:26;1;1;1
70520;PMS5003;58442;52.716;23.560;2023-08-07T01:16:45;2;2;2
70520;PMS5003;58442;52.716;23.560;2023-08-07T01:18:51;4;2;1
70520;PMS5003;58442;52.716;23.560;2023-08-07T01:20:55;2;2;2
70520;PMS5003;58442;52.716;23.560;2023-08-07T01:22:57;2;2;2
70520;PMS5003;58442;52.716;23.560;2023-08-07T01:24:58;2;2;2
70520;PMS5003;58442;52.716;23.560;2023-08-07T01:27:02;2;2;1
70520;PMS5003;58442;52.716;23.560;2023-08-07T01:29:13;0;0;0
70520;PMS5003;58442;52.716;23.560;2023-08-07T01:31:25;4;4;3
70520;PMS5003;58442;52.716;23.560;2023-08-07T01:35:43;1;1;0
70520;PMS5003;58442;52.716;23.560;2023-08-07T01:37:47;1;1;1
70520;PMS5003;58442;52.716;23.560;2023-08-07T01:39:51;2;2;2
70520;PMS5003;58442;52.716;23.560;2023-08-07T01:41:54;0;0;0
70520;PMS5003;58442;52.716;23.560;2023-08-07T01:43:57;4;4;4
70520;PMS5003;58442;52.716;23.560;2023-08-07T01:45:58;2;2;1
70520;PMS5003;58442;52.716;23.560;2023-08-07T01:48:01;2;2;2
70520;PMS5003;58442;52.716;23.560;2023-08-07T01:50:02;1;1;1
70520;PMS5003;58442;52.716;23.560;2023-08-07T01:52:05;1;1;1
70520;PMS5003;58442;52.716;23.560;2023-08-07T01:54:07;2;2;2
70520;PMS5003;58442;52.716;23.560;2023-08-07T01:56:15;7;7;5
70520;PMS5003;58442;52.716;23.560;2023-08-07T01:58:17;4;4;3
70520;PMS5003;58442;52.716;23.560;2023-08-07T02:00:18;3;3;2
70520;PMS5003;58442;52.716;23.560;2023-08-07T02:02:20;7;7;5
70520;PMS5003;58442;52.716;23.560;2023-08-07T02:04:30;2;2;2
70520;PMS5003;58442;52.716;23.560;2023-08-07T02:06:32;1;1;1
70520;PMS5003;58442;52.716;23.560;2023-08-07T02:08:33;1;1;1
70520;PMS5003;58442;52.716;23.560;2023-08-07T02:10:34;1;1;1
70520;PMS5003;58442;52.716;23.560;2023-08-07T02:12:45;2;2;2
70520;PMS5003;58442;52.716;23.560;2023-08-07T02:14:46;1;1;1
70520;PMS5003;58442;52.716;23.560;2023-08-07T02:16:47;1;1;1
70520;PMS5003;58442;52.716;23.560;2023-08-07T02:18:49;2;2;2
70520;PMS5003;58442;52.716;23.560;2023-08-07T02:20:59;2;2;1
70520;PMS5003;58442;52.716;23.560;2023-08-07T02:23:01;1;1;1
70520;PMS5003;58442;52.716;23.560;2023-08-07T02:25:02;2;2;2
70520;PMS5003;58442;52.716;23.560;2023-08-07T02:27:04;6;6;5
70520;PMS5003;58442;52.716;23.560;2023-08-07T02:29:14;2;2;1
70520;PMS5003;58442;52.716;23.560;2023-08-07T02:31:15;3;3;2
70520;PMS5003;58442;52.716;23.560;2023-08-07T02:33:17;1;1;1
70520;PMS5003;58442;52.716;23.560;2023-08-07T02:35:18;1;1;1
70520;PMS5003;58442;52.716;23.560;2023-08-07T02:37:29;2;2;2
70520;PMS5003;58442;52.716;23.560;2023-08-07T02:39:30;1;1;1
70520;PMS5003;58442;52.716;23.560;2023-08-07T02:41:31;1;1;1
70520;PMS5003;58442;52.716;23.560;2023-08-07T02:43:33;2;2;2
70520;PMS5003;58442;52.716;23.560;2023-08-07T02:45:43;2;2;2
70520;PMS5003;58442;52.716;23.560;2023-08-07T02:47:45;1;1;1
70520;PMS5003;58442;52.716;23.560;2023-08-07T02:49:46;2;2;2
70520;PMS5003;58442;52.716;23.560;2023-08-07T02:51:48;2;2;2
70520;PMS5003;58442;52.716;23.560;2023-08-07T02:53:58;1;1;1
70520;PMS5003;58442;52.716;23.560;2023-08-07T02:55:59;1;1;1
70520;PMS5003;58442;52.716;23.560;2023-08-07T02:58:01;1;1;1
70520;PMS5003;58442;52.716;23.560;2023-08-07T03:00:02;2;2;1
70520;PMS5003;58442;52.716;23.560;2023-08-07T03:02:13;1;1;1
70520;PMS5003;58442;52.716;23.560;2023-08-07T03:04:14;1;1;1
70520;PMS5003;58442;52.716;23.560;2023-08-07T03:06:16;1;1;1
70520;PMS5003;58442;52.716;23.560;2023-08-07T03:08:17;3;3;2
70520;PMS5003;58442;52.716;23.560;2023-08-07T03:10:28;2;2;1
70520;PMS5003;58442;52.716;23.560;2023-08-07T03:12:29;2;2;2
70520;PMS5003;58442;52.716;23.560;2023-08-07T03:14:31;1;1;1
70520;PMS5003;58442;52.716;23.560;2023-08-07T03:16:33;2;2;2
70520;PMS5003;58442;52.716;23.560;2023-08-07T03:18:42;1;1;1
70520;PMS5003;58442;52.716;23.560;2023-08-07T03:20:44;1;1;0
70520;PMS5003;58442;52.716;23.560;2023-08-07T03:22:46;2;2;2
70520;PMS5003;58442;52.716;23.560;2023-08-07T03:24:47;2;2;2
70520;PMS5003;58442;52.716;23.560;2023-08-07T03:26:57;2;2;1
70520;PMS5003;58442;52.716;23.560;2023-08-07T03:28:58;2;2;1
70520;PMS5003;58442;52.716;23.560;2023-08-07T03:31:00;2;2;2
70520;PMS5003;58442;52.716;23.560;2023-08-07T03:33:02;1;1;1
70520;PMS5003;58442;52.716;23.560;2023-08-07T03:35:12;3;3;2
70520;PMS5003;58442;52.716;23.560;2023-08-07T03:37:13;1;1;1
70520;PMS5003;58442;52.716;23.560;2023-08-07T03:39:14;6;6;5
70520;PMS5003;58442;52.716;23.560;2023-08-07T03:41:16;2;2;2
70520;PMS5003;58442;52.716;23.560;2023-08-07T03:43:26;2;2;1
70520;PMS5003;58442;52.716;23.560;2023-08-07T03:45:28;1;1;1
70520;PMS5003;58442;52.716;23.560;2023-08-07T03:47:29;2;2;2
70520;PMS5003;58442;52.716;23.560;2023-08-07T03:49:30;1;1;1
70520;PMS5003;58442;52.716;23.560;2023-08-07T03:51:41;2;2;1
70520;PMS5003;58442;52.716;23.560;2023-08-07T03:53:42;3;3;2
70520;PMS5003;58442;52.716;23.560;2023-08-07T03:55:48;1;1;1
70520;PMS5003;58442;52.716;23.560;2023-08-07T03:57:52;1;1;1
70520;PMS5003;58442;52.716;23.560;2023-08-07T03:59:56;1;1;1
70520;PMS5003;58442;52.716;23.560;2023-08-07T04:01:58;1;1;1
70520;PMS5003;58442;52.716;23.560;2023-08-07T04:03:59;1;1;1
70520;PMS5003;58442;52.716;23.560;2023-08-07T04:06:01;0;0;0
70520;PMS5003;58442;52.716;23.560;2023-08-07T04:08:11;0;0;0
70520;PMS5003;58442;52.716;23.560;2023-08-07T04:10:12;0;0;0
70520;PMS5003;58442;52.716;23.560;2023-08-07T04:12:13;0;0;0
70520;PMS5003;58442;52.716;23.560;2023-08-07T04:14:15;0;0;0
70520;PMS5003;58442;52.716;23.560;2023-08-07T04:16:25;1;1;0
70520;PMS5003;58442;52.716;23.560;2023-08-07T04:18:26;1;1;1
70520;PMS5003;58442;52.716;23.560;2023-08-07T04:20:28;0;0;0
70520;PMS5003;58442;52.716;23.560;2023-08-07T04:22:29;0;0;0
70520;PMS5003;58442;52.716;23.560;2023-08-07T04:24:40;0;0;0
70520;PMS5003;58442;52.716;23.560;2023-08-07T04:26:41;0;0;0
70520;PMS5003;58442;52.716;23.560;2023-08-07T04:28:43;0;0;0
70520;PMS5003;58442;52.716;23.560;2023-08-07T04:30:44;0;0;0
70520;PMS5003;58442;52.716;23.560;2023-08-07T04:32:54;0;0;0
70520;PMS5003;58442;52.716;23.560;2023-08-07T04:34:56;0;0;0
70520;PMS5003;58442;52.716;23.560;2023-08-07T04:36:57;0;0;0
70520;PMS5003;58442;52.716;23.560;2023-08-07T04:38:58;0;0;0
70520;PMS5003;58442;52.716;23.560;2023-08-07T04:41:09;0;0;0
70520;PMS5003;58442;52.716;23.560;2023-08-07T04:43:11;0;0;0
70520;PMS5003;58442;52.716;23.560;2023-08-07T04:45:12;0;0;0
70520;PMS5003;58442;52.716;23.560;2023-08-07T04:47:14;0;0;0
70520;PMS5003;58442;52.716;23.560;2023-08-07T04:49:24;0;0;0
70520;PMS5003;58442;52.716;23.560;2023-08-07T04:51:25;0;0;0
70520;PMS5003;58442;52.716;23.560;2023-08-07T04:53:26;0;0;0
70520;PMS5003;58442;52.716;23.560;2023-08-07T04:55:28;0;0;0
70520;PMS5003;58442;52.716;23.560;2023-08-07T04:57:38;0;0;0
70520;PMS5003;58442;52.716;23.560;2023-08-07T04:59:40;0;0;0
70520;PMS5003;58442;52.716;23.560;2023-08-07T05:01:41;0;0;0
70520;PMS5003;58442;52.716;23.560;2023-08-07T05:03:42;0;0;0
70520;PMS5003;58442;52.716;23.560;2023-08-07T05:08:01;0;0;0
70520;PMS5003;58442;52.716;23.560;2023-08-07T05:10:03;1;1;1
70520;PMS5003;58442;52.716;23.560;2023-08-07T05:12:05;0;0;0
70520;PMS5003;58442;52.716;23.560;2023-08-07T05:14:08;0;0;0
70520;PMS5003;58442;52.716;23.560;2023-08-07T05:16:09;0;0;0
70520;PMS5003;58442;52.716;23.560;2023-08-07T05:18:10;0;0;0
70520;PMS5003;58442;52.716;23.560;2023-08-07T05:20:12;0;0;0
70520;PMS5003;58442;52.716;23.560;2023-08-07T05:22:23;0;0;0
70520;PMS5003;58442;52.716;23.560;2023-08-07T05:24:24;0;0;0
70520;PMS5003;58442;52.716;23.560;2023-08-07T05:26:25;0;0;0
70520;PMS5003;58442;52.716;23.560;2023-08-07T05:28:29;0;0;0
70520;PMS5003;58442;52.716;23.560;2023-08-07T05:30:37;0;0;0
70520;PMS5003;58442;52.716;23.560;2023-08-07T05:32:40;0;0;0
70520;PMS5003;58442;52.716;23.560;2023-08-07T05:34:42;0;0;0
70520;PMS5003;58442;52.716;23.560;2023-08-07T05:36:44;0;0;0
70520;PMS5003;58442;52.716;23.560;2023-08-07T05:38:52;0;0;0
70520;PMS5003;58442;52.716;23.560;2023-08-07T05:40:53;0;0;0
70520;PMS5003;58442;52.716;23.560;2023-08-07T05:42:55;0;0;0
70520;PMS5003;58442;52.716;23.560;2023-08-07T05:44:56;0;0;0
70520;PMS5003;58442;52.716;23.560;2023-08-07T05:47:07;0;0;0
70520;PMS5003;58442;52.716;23.560;2023-08-07T05:49:08;0;0;0
70520;PMS5003;58442;52.716;23.560;2023-08-07T05:51:09;0;0;0
70520;PMS5003;58442;52.716;23.560;2023-08-07T05:53:11;0;0;0
70520;PMS5003;58442;52.716;23.560;2023-08-07T05:55:21;0;0;0
70520;PMS5003;58442;52.716;23.560;2023-08-07T05:57:23;0;0;0
70520;PMS5003;58442;52.716;23.560;2023-08-07T05:59:24;0;0;0
70520;PMS5003;58442;52.716;23.560;2023-08-07T06:01:26;0;0;0
70520;PMS5003;58442;52.716;23.560;2023-08-07T06:03:36;1;1;1
70520;PMS5003;58442;52.716;23.560;2023-08-07T06:05:37;0;0;0
70520;PMS5003;58442;52.716;23.560;2023-08-07T06:07:39;0;0;0
70520;PMS5003;58442;52.716;23.560;2023-08-07T06:09:40;1;1;1
70520;PMS5003;58442;52.716;23.560;2023-08-07T06:11:51;0;0;0
70520;PMS5003;58442;52.716;23.560;2023-08-07T06:13:52;0;0;0
70520;PMS5003;58442;52.716;23.560;2023-08-07T06:15:54;0;0;0
70520;PMS5003;58442;52.716;23.560;2023-08-07T06:17:55;1;1;0
70520;PMS5003;58442;52.716;23.560;2023-08-07T06:20:07;0;0;0
70520;PMS5003;58442;52.716;23.560;2023-08-07T06:22:12;1;1;1
70520;PMS5003;58442;52.716;23.560;2023-08-07T06:24:13;2;2;1
70520;PMS5003;58442;52.716;23.560;2023-08-07T06:26:14;2;2;1
70520;PMS5003;58442;52.716;23.560;2023-08-07T06:28:20;0;0;0
70520;PMS5003;58442;52.716;23.560;2023-08-07T06:30:22;0;0;0
70520;PMS5003;58442;52.716;23.560;2023-08-07T06:32:24;2;2;1
70520;PMS5003;58442;52.716;23.560;2023-08-07T06:34:26;3;3;1
70520;PMS5003;58442;52.716;23.560;2023-08-07T06:36:35;9;9;2
70520;PMS5003;58442;52.716;23.560;2023-08-07T06:38:36;2;2;0
70520;PMS5003;58442;52.716;23.560;2023-08-07T06:40:38;3;3;1
70520;PMS5003;58442;52.716;23.560;2023-08-07T06:42:40;14;12;6
70520;PMS5003;58442;52.716;23.560;2023-08-07T06:44:50;34;32;20
70520;PMS5003;58442;52.716;23.560;2023-08-07T06:46:51;27;25;16
70520;PMS5003;58442;52.716;23.560;2023-08-07T06:48:53;5;5;5
70520;PMS5003;58442;52.716;23.560;2023-08-07T06:50:54;30;30;20
70520;PMS5003;58442;52.716;23.560;2023-08-07T06:53:04;49;42;28
70520;PMS5003;58442;52.716;23.560;2023-08-07T06:55:06;48;41;30
70520;PMS5003;58442;52.716;23.560;2023-08-07T06:57:08;27;27;21
70520;PMS5003;58442;52.716;23.560;2023-08-07T06:59:09;33;31;21
70520;PMS5003;58442;52.716;23.560;2023-08-07T07:01:19;18;18;16
70520;PMS5003;58442;52.716;23.560;2023-08-07T07:03:21;22;22;18
70520;PMS5003;58442;52.716;23.560;2023-08-07T07:05:22;37;34;26
70520;PMS5003;58442;52.716;23.560;2023-08-07T07:07:24;27;27;22
70520;PMS5003;58442;52.716;23.560;2023-08-07T07:09:34;8;8;7
70520;PMS5003;58442;52.716;23.560;2023-08-07T07:11:35;11;11;10
70520;PMS5003;58442;52.716;23.560;2023-08-07T07:13:38;5;5;4
70520;PMS5003;58442;52.716;23.560;2023-08-07T07:15:39;6;6;5
70520;PMS5003;58442;52.716;23.560;2023-08-07T07:17:49;8;8;6
70520;PMS5003;58442;52.716;23.560;2023-08-07T07:19:50;6;6;6
70520;PMS5003;58442;52.716;23.560;2023-08-07T07:22:43;3;3;3
70520;PMS5003;58442;52.716;23.560;2023-08-07T07:24:44;7;7;6
70520;PMS5003;58442;52.716;23.560;2023-08-07T07:26:46;15;15;13
70520;PMS5003;58442;52.716;23.560;2023-08-07T07:28:58;12;12;10
70520;PMS5003;58442;52.716;23.560;2023-08-07T07:30:59;16;16;12
70520;PMS5003;58442;52.716;23.560;2023-08-07T07:33:00;41;36;26
70520;PMS5003;58442;52.716;23.560;2023-08-07T07:35:02;10;10;10
70520;PMS5003;58442;52.716;23.560;2023-08-07T07:37:13;25;24;19
70520;PMS5003;58442;52.716;23.560;2023-08-07T07:39:17;13;12;11
70520;PMS5003;58442;52.716;23.560;2023-08-07T07:41:18;7;7;6
70520;PMS5003;58442;52.716;23.560;2023-08-07T07:43:19;11;11;9
70520;PMS5003;58442;52.716;23.560;2023-08-07T07:45:27;7;7;7
70520;PMS5003;58442;52.716;23.560;2023-08-07T07:47:28;22;21;17
70520;PMS5003;58442;52.716;23.560;2023-08-07T07:49:30;6;6;5
70520;PMS5003;58442;52.716;23.560;2023-08-07T07:51:31;5;5;5
70520;PMS5003;58442;52.716;23.560;2023-08-07T07:53:42;6;6;5
70520;PMS5003;58442;52.716;23.560;2023-08-07T07:55:46;9;9;9
70520;PMS5003;58442;52.716;23.560;2023-08-07T07:57:48;3;3;3
70520;PMS5003;58442;52.716;23.560;2023-08-07T07:59:50;4;4;4
70520;PMS5003;58442;52.716;23.560;2023-08-07T08:01:56;3;3;2
70520;PMS5003;58442;52.716;23.560;2023-08-07T08:03:58;3;3;3
70520;PMS5003;58442;52.716;23.560;2023-08-07T08:05:59;13;13;11
70520;PMS5003;58442;52.716;23.560;2023-08-07T08:08:01;7;7;7
70520;PMS5003;58442;52.716;23.560;2023-08-07T08:10:11;8;8;7
70520;PMS5003;58442;52.716;23.560;2023-08-07T08:12:14;6;6;6
70520;PMS5003;58442;52.716;23.560;2023-08-07T08:14:15;4;4;4
70520;PMS5003;58442;52.716;23.560;2023-08-07T08:16:17;1;1;1
70520;PMS5003;58442;52.716;23.560;2023-08-07T08:18:26;0;0;0
70520;PMS5003;58442;52.716;23.560;2023-08-07T08:20:27;1;1;1
70520;PMS5003;58442;52.716;23.560;2023-08-07T08:22:31;1;1;1
70520;PMS5003;58442;52.716;23.560;2023-08-07T08:24:34;1;1;1
70520;PMS5003;58442;52.716;23.560;2023-08-07T08:26:41;2;2;2
70520;PMS5003;58442;52.716;23.560;2023-08-07T08:28:42;1;1;1
70520;PMS5003;58442;52.716;23.560;2023-08-07T08:30:43;0;0;0
70520;PMS5003;58442;52.716;23.560;2023-08-07T08:32:45;1;1;1
70520;PMS5003;58442;52.716;23.560;2023-08-07T08:34:55;0;0;0
70520;PMS5003;58442;52.716;23.560;2023-08-07T08:36:57;1;1;0
70520;PMS5003;58442;52.716;23.560;2023-08-07T08:38:58;0;0;0
70520;PMS5003;58442;52.716;23.560;2023-08-07T08:41:00;1;1;1
70520;PMS5003;58442;52.716;23.560;2023-08-07T08:43:10;0;0;0
70520;PMS5003;58442;52.716;23.560;2023-08-07T08:45:13;0;0;0
70520;PMS5003;58442;52.716;23.560;2023-08-07T08:47:15;0;0;0
70520;PMS5003;58442;52.716;23.560;2023-08-07T08:49:18;0;0;0
70520;PMS5003;58442;52.716;23.560;2023-08-07T08:51:28;0;0;0
70520;PMS5003;58442;52.716;23.560;2023-08-07T08:53:31;1;1;1
70520;PMS5003;58442;52.716;23.560;2023-08-07T08:55:33;0;0;0
70520;PMS5003;58442;52.716;23.560;2023-08-07T08:57:35;0;0;0
70520;PMS5003;58442;52.716;23.560;2023-08-07T08:59:40;0;0;0
70520;PMS5003;58442;52.716;23.560;2023-08-07T09:01:43;0;0;0
70520;PMS5003;58442;52.716;23.560;2023-08-07T09:03:45;0;0;0
70520;PMS5003;58442;52.716;23.560;2023-08-07T09:05:47;0;0;0
70520;PMS5003;58442;52.716;23.560;2023-08-07T09:07:54;0;0;0
70520;PMS5003;58442;52.716;23.560;2023-08-07T09:09:56;0;0;0
70520;PMS5003;58442;52.716;23.560;2023-08-07T09:11:58;0;0;0
70520;PMS5003;58442;52.716;23.560;2023-08-07T09:14:03;1;1;1
70520;PMS5003;58442;52.716;23.560;2023-08-07T09:16:09;0;0;0
70520;PMS5003;58442;52.716;23.560;2023-08-07T09:18:12;1;1;1
70520;PMS5003;58442;52.716;23.560;2023-08-07T09:20:13;0;0;0
70520;PMS5003;58442;52.716;23.560;2023-08-07T09:22:15;1;1;1
70520;PMS5003;58442;52.716;23.560;2023-08-07T09:24:23;1;1;1
70520;PMS5003;58442;52.716;23.560;2023-08-07T09:26:25;0;0;0
70520;PMS5003;58442;52.716;23.560;2023-08-07T09:28:26;0;0;0
70520;PMS5003;58442;52.716;23.560;2023-08-07T09:30:34;0;0;0
70520;PMS5003;58442;52.716;23.560;2023-08-07T09:32:39;0;0;0
70520;PMS5003;58442;52.716;23.560;2023-08-07T09:34:40;1;1;1
70520;PMS5003;58442;52.716;23.560;2023-08-07T09:36:42;0;0;0
70520;PMS5003;58442;52.716;23.560;2023-08-07T09:38:44;0;0;0
70520;PMS5003;58442;52.716;23.560;2023-08-07T09:40:53;0;0;0
70520;PMS5003;58442;52.716;23.560;2023-08-07T09:42:57;0;0;0
70520;PMS5003;58442;52.716;23.560;2023-08-07T09:45:01;0;0;0
70520;PMS5003;58442;52.716;23.560;2023-08-07T09:49:16;0;0;0
70520;PMS5003;58442;52.716;23.560;2023-08-07T09:51:17;0;0;0
70520;PMS5003;58442;52.716;23.560;2023-08-07T09:53:24;0;0;0
70520;PMS5003;58442;52.716;23.560;2023-08-07T09:55:28;0;0;0
70520;PMS5003;58442;52.716;23.560;2023-08-07T09:57:29;0;0;0
70520;PMS5003;58442;52.716;23.560;2023-08-07T09:59:34;0;0;0
70520;PMS5003;58442;52.716;23.560;2023-08-07T10:01:38;0;0;0
70520;PMS5003;58442;52.716;23.560;2023-08-07T10:03:40;0;0;0
70520;PMS5003;58442;52.716;23.560;2023-08-07T10:05:43;0;0;0
70520;PMS5003;58442;52.716;23.560;2023-08-07T10:07:44;0;0;0
70520;PMS5003;58442;52.716;23.560;2023-08-07T10:09:47;0;0;0
70520;PMS5003;58442;52.716;23.560;2023-08-07T10:11:49;0;0;0
70520;PMS5003;58442;52.716;23.560;2023-08-07T10:13:54;0;0;0
70520;PMS5003;58442;52.716;23.560;2023-08-07T10:15:58;0;0;0
70520;PMS5003;58442;52.716;23.560;2023-08-07T10:17:59;0;0;0
70520;PMS5003;58442;52.716;23.560;2023-08-07T10:20:01;0;0;0
70520;PMS5003;58442;52.716;23.560;2023-08-07T10:22:09;0;0;0
70520;PMS5003;58442;52.716;23.560;2023-08-07T10:24:10;0;0;0
70520;PMS5003;58442;52.716;23.560;2023-08-07T10:26:12;0;0;0
70520;PMS5003;58442;52.716;23.560;2023-08-07T10:28:16;0;0;0
70520;PMS5003;58442;52.716;23.560;2023-08-07T10:30:23;0;0;0
70520;PMS5003;58442;52.716;23.560;2023-08-07T10:32:26;0;0;0
70520;PMS5003;58442;52.716;23.560;2023-08-07T10:34:29;0;0;0
70520;PMS5003;58442;52.716;23.560;2023-08-07T10:36:34;0;0;0
70520;PMS5003;58442;52.716;23.560;2023-08-07T10:38:38;0;0;0
70520;PMS5003;58442;52.716;23.560;2023-08-07T10:42:56;0;0;0
70520;PMS5003;58442;52.716;23.560;2023-08-07T10:45:00;0;0;0
70520;PMS5003;58442;52.716;23.560;2023-08-07T10:47:02;0;0;0
70520;PMS5003;58442;52.716;23.560;2023-08-07T10:49:03;0;0;0
70520;PMS5003;58442;52.716;23.560;2023-08-07T10:51:06;0;0;0
70520;PMS5003;58442;52.716;23.560;2023-08-07T10:53:08;0;0;0
70520;PMS5003;58442;52.716;23.560;2023-08-07T10:55:14;0;0;0
70520;PMS5003;58442;52.716;23.560;2023-08-07T10:57:17;0;0;0
70520;PMS5003;58442;52.716;23.560;2023-08-07T10:59:19;0;0;0
70520;PMS5003;58442;52.716;23.560;2023-08-07T11:01:22;0;0;0
70520;PMS5003;58442;52.716;23.560;2023-08-07T11:03:29;0;0;0
70520;PMS5003;58442;52.716;23.560;2023-08-07T11:05:30;0;0;0
70520;PMS5003;58442;52.716;23.560;2023-08-07T11:07:31;0;0;0
70520;PMS5003;58442;52.716;23.560;2023-08-07T11:09:34;0;0;0
70520;PMS5003;58442;52.716;23.560;2023-08-07T11:11:44;0;0;0
70520;PMS5003;58442;52.716;23.560;2023-08-07T11:13:47;0;0;0
70520;PMS5003;58442;52.716;23.560;2023-08-07T11:15:49;0;0;0
70520;PMS5003;58442;52.716;23.560;2023-08-07T11:17:50;0;0;0
70520;PMS5003;58442;52.716;23.560;2023-08-07T11:19:56;0;0;0
70520;PMS5003;58442;52.716;23.560;2023-08-07T11:21:58;0;0;0
70520;PMS5003;58442;52.716;23.560;2023-08-07T11:24:00;0;0;0
70520;PMS5003;58442;52.716;23.560;2023-08-07T11:26:02;0;0;0
70520;PMS5003;58442;52.716;23.560;2023-08-07T11:28:10;0;0;0
70520;PMS5003;58442;52.716;23.560;2023-08-07T11:30:12;1;1;1
70520;PMS5003;58442;52.716;23.560;2023-08-07T11:32:13;0;0;0
70520;PMS5003;58442;52.716;23.560;2023-08-07T11:34:16;0;0;0
70520;PMS5003;58442;52.716;23.560;2023-08-07T11:36:25;0;0;0
70520;PMS5003;58442;52.716;23.560;2023-08-07T11:38:30;1;1;1
70520;PMS5003;58442;52.716;23.560;2023-08-07T11:40:34;0;0;0
70520;PMS5003;58442;52.716;23.560;2023-08-07T11:42:35;0;0;0
70520;PMS5003;58442;52.716;23.560;2023-08-07T11:44:40;0;0;0
70520;PMS5003;58442;52.716;23.560;2023-08-07T11:46:42;0;0;0
70520;PMS5003;58442;52.716;23.560;2023-08-07T11:48:44;0;0;0
70520;PMS5003;58442;52.716;23.560;2023-08-07T11:50:45;0;0;0
70520;PMS5003;58442;52.716;23.560;2023-08-07T11:52:54;0;0;0
70520;PMS5003;58442;52.716;23.560;2023-08-07T11:55:02;0;0;0
70520;PMS5003;58442;52.716;23.560;2023-08-07T11:57:14;0;0;0
70520;PMS5003;58442;52.716;23.560;2023-08-07T11:59:17;0;0;0
70520;PMS5003;58442;52.716;23.560;2023-08-07T12:01:20;0;0;0
70520;PMS5003;58442;52.716;23.560;2023-08-07T12:03:35;1;1;1
70520;PMS5003;58442;52.716;23.560;2023-08-07T12:05:39;1;1;1
70520;PMS5003;58442;52.716;23.560;2023-08-07T12:07:41;0;0;0
70520;PMS5003;58442;52.716;23.560;2023-08-07T12:09:43;0;0;0
70520;PMS5003;58442;52.716;23.560;2023-08-07T12:11:45;0;0;0
70520;PMS5003;58442;52.716;23.560;2023-08-07T12:13:47;1;1;1
70520;PMS5003;58442;52.716;23.560;2023-08-07T12:15:53;0;0;0
70520;PMS5003;58442;52.716;23.560;2023-08-07T12:20:07;2;2;2
70520;PMS5003;58442;52.716;23.560;2023-08-07T12:22:21;2;2;2
70520;PMS5003;58442;52.716;23.560;2023-08-07T12:24:23;6;6;5
70520;PMS5003;58442;52.716;23.560;2023-08-07T12:26:24;5;5;4
70520;PMS5003;58442;52.716;23.560;2023-08-07T12:28:25;1;1;1
70520;PMS5003;58442;52.716;23.560;2023-08-07T12:30:36;1;1;0
70520;PMS5003;58442;52.716;23.560;2023-08-07T12:32:38;1;1;1
70520;PMS5003;58442;52.716;23.560;2023-08-07T12:34:40;0;0;0
70520;PMS5003;58442;52.716;23.560;2023-08-07T12:36:41;0;0;0
70520;PMS5003;58442;52.716;23.560;2023-08-07T12:38:51;1;1;1
70520;PMS5003;58442;52.716;23.560;2023-08-07T12:40:52;1;1;0
70520;PMS5003;58442;52.716;23.560;2023-08-07T12:42:54;1;1;0
70520;PMS5003;58442;52.716;23.560;2023-08-07T12:44:55;1;1;1
70520;PMS5003;58442;52.716;23.560;2023-08-07T12:47:05;0;0;0
70520;PMS5003;58442;52.716;23.560;2023-08-07T12:49:10;1;1;1
70520;PMS5003;58442;52.716;23.560;2023-08-07T12:51:11;2;2;1
70520;PMS5003;58442;52.716;23.560;2023-08-07T12:53:13;1;1;1
70520;PMS5003;58442;52.716;23.560;2023-08-07T12:55:20;2;2;2
70520;PMS5003;58442;52.716;23.560;2023-08-07T12:57:21;0;0;0
70520;PMS5003;58442;52.716;23.560;2023-08-07T12:59:23;0;0;0
70520;PMS5003;58442;52.716;23.560;2023-08-07T13:01:24;0;0;0
70520;PMS5003;58442;52.716;23.560;2023-08-07T13:03:35;0;0;0
70520;PMS5003;58442;52.716;23.560;2023-08-07T13:05:36;2;2;1
70520;PMS5003;58442;52.716;23.560;2023-08-07T13:07:38;0;0;0
70520;PMS5003;58442;52.716;23.560;2023-08-07T13:09:40;1;1;1
70520;PMS5003;58442;52.716;23.560;2023-08-07T13:11:49;0;0;0
70520;PMS5003;58442;52.716;23.560;2023-08-07T13:13:52;1;1;1
70520;PMS5003;58442;52.716;23.560;2023-08-07T13:15:53;0;0;0
70520;PMS5003;58442;52.716;23.560;2023-08-07T13:17:55;0;0;0
70520;PMS5003;58442;52.716;23.560;2023-08-07T13:20:06;1;1;0
70520;PMS5003;58442;52.716;23.560;2023-08-07T13:22:08;1;1;1
70520;PMS5003;58442;52.716;23.560;2023-08-07T13:24:10;1;1;1
70520;PMS5003;58442;52.716;23.560;2023-08-07T13:26:12;2;2;0
70520;PMS5003;58442;52.716;23.560;2023-08-07T13:28:19;0;0;0
70520;PMS5003;58442;52.716;23.560;2023-08-07T13:30:20;1;1;1
70520;PMS5003;58442;52.716;23.560;2023-08-07T13:32:21;1;1;0
70520;PMS5003;58442;52.716;23.560;2023-08-07T13:34:23;2;2;1
70520;PMS5003;58442;52.716;23.560;2023-08-07T13:36:35;1;1;1
70520;PMS5003;58442;52.716;23.560;2023-08-07T13:38:37;1;1;0
70520;PMS5003;58442;52.716;23.560;2023-08-07T13:40:39;1;1;1
70520;PMS5003;58442;52.716;23.560;2023-08-07T13:42:40;2;2;1
70520;PMS5003;58442;52.716;23.560;2023-08-07T13:44:48;0;0;0
70520;PMS5003;58442;52.716;23.560;2023-08-07T13:46:49;0;0;0
70520;PMS5003;58442;52.716;23.560;2023-08-07T13:48:52;1;1;1